sensor_id;sensor_type;location;lat;lon;timestamp;P1;durP1;ratioP1;P2;durP2;ratioP2
60885;SDS011;46736;41.654;-8.438;2023-07-31T00:01:07;0.30;;;0.30;;
60885;SDS011;46736;41.654;-8.438;2023-07-31T00:03:07;0.30;;;0.30;;
60885;SDS011;46736;41.654;-8.438;2023-07-31T00:05:08;0.30;;;0.30;;
60885;SDS011;46736;41.654;-8.438;2023-07-31T00:07:10;0.40;;;0.40;;
60885;SDS011;46736;41.654;-8.438;2023-07-31T00:09:10;0.40;;;0.40;;
60885;SDS011;46736;41.654;-8.438;2023-07-31T00:11:11;0.32;;;0.32;;
60885;SDS011;46736;41.654;-8.438;2023-07-31T00:13:11;0.30;;;0.30;;
60885;SDS011;46736;41.654;-8.438;2023-07-31T00:15:12;0.30;;;0.30;;
60885;SDS011;46736;41.654;-8.438;2023-07-31T00:17:13;0.30;;;0.30;;
60885;SDS011;46736;41.654;-8.438;2023-07-31T00:19:13;0.30;;;0.30;;
60885;SDS011;46736;41.654;-8.438;2023-07-31T00:21:14;0.40;;;0.40;;
60885;SDS011;46736;41.654;-8.438;2023-07-31T00:23:15;0.32;;;0.32;;
60885;SDS011;46736;41.654;-8.438;2023-07-31T00:25:15;0.30;;;0.30;;
60885;SDS011;46736;41.654;-8.438;2023-07-31T00:27:16;0.40;;;0.40;;
60885;SDS011;46736;41.654;-8.438;2023-07-31T00:29:17;0.40;;;0.40;;
60885;SDS011;46736;41.654;-8.438;2023-07-31T00:31:18;0.40;;;0.40;;
60885;SDS011;46736;41.654;-8.438;2023-07-31T00:33:18;0.38;;;0.38;;
60885;SDS011;46736;41.654;-8.438;2023-07-31T00:35:19;0.30;;;0.30;;
60885;SDS011;46736;41.654;-8.438;2023-07-31T00:37:19;0.40;;;0.40;;
60885;SDS011;46736;41.654;-8.438;2023-07-31T00:39:20;0.40;;;0.40;;
60885;SDS011;46736;41.654;-8.438;2023-07-31T00:41:20;0.40;;;0.40;;
60885;SDS011;46736;41.654;-8.438;2023-07-31T00:43:22;0.40;;;0.40;;
60885;SDS011;46736;41.654;-8.438;2023-07-31T00:45:23;0.30;;;0.30;;
60885;SDS011;46736;41.654;-8.438;2023-07-31T00:47:23;0.30;;;0.30;;
60885;SDS011;46736;41.654;-8.438;2023-07-31T00:49:24;0.30;;;0.30;;
60885;SDS011;46736;41.654;-8.438;2023-07-31T00:51:25;0.22;;;0.22;;
60885;SDS011;46736;41.654;-8.438;2023-07-31T00:53:25;0.20;;;0.20;;
60885;SDS011;46736;41.654;-8.438;2023-07-31T00:55:26;0.30;;;0.30;;
60885;SDS011;46736;41.654;-8.438;2023-07-31T00:57:27;0.40;;;0.40;;
60885;SDS011;46736;41.654;-8.438;2023-07-31T00:59:27;0.20;;;0.20;;
60885;SDS011;46736;41.654;-8.438;2023-07-31T01:01:28;0.30;;;0.30;;
60885;SDS011;46736;41.654;-8.438;2023-07-31T01:03:28;0.40;;;0.40;;
60885;SDS011;46736;41.654;-8.438;2023-07-31T01:05:35;0.30;;;0.30;;
60885;SDS011;46736;41.654;-8.438;2023-07-31T01:09:47;0.40;;;0.40;;
60885;SDS011;46736;41.654;-8.438;2023-07-31T01:11:52;0.22;;;0.22;;
60885;SDS011;46736;41.654;-8.438;2023-07-31T01:13:54;0.30;;;0.30;;
60885;SDS011;46736;41.654;-8.438;2023-07-31T01:15:55;0.32;;;0.32;;
60885;SDS011;46736;41.654;-8.438;2023-07-31T01:17:55;0.30;;;0.30;;
60885;SDS011;46736;41.654;-8.438;2023-07-31T01:19:56;0.30;;;0.30;;
60885;SDS011;46736;41.654;-8.438;2023-07-31T01:30:21;0.30;;;0.30;;
60885;SDS011;46736;41.654;-8.438;2023-07-31T01:32:22;0.40;;;0.40;;
60885;SDS011;46736;41.654;-8.438;2023-07-31T01:34:23;0.30;;;0.30;;
60885;SDS011;46736;41.654;-8.438;2023-07-31T01:36:24;0.30;;;0.30;;
60885;SDS011;46736;41.654;-8.438;2023-07-31T01:38:25;0.20;;;0.20;;
60885;SDS011;46736;41.654;-8.438;2023-07-31T01:40:25;0.30;;;0.30;;
60885;SDS011;46736;41.654;-8.438;2023-07-31T01:42:26;0.40;;;0.40;;
60885;SDS011;46736;41.654;-8.438;2023-07-31T01:44:26;0.30;;;0.30;;
60885;SDS011;46736;41.654;-8.438;2023-07-31T01:46:27;0.30;;;0.30;;
60885;SDS011;46736;41.654;-8.438;2023-07-31T01:48:28;0.40;;;0.40;;
60885;SDS011;46736;41.654;-8.438;2023-07-31T01:50:29;0.40;;;0.40;;
60885;SDS011;46736;41.654;-8.438;2023-07-31T01:52:29;0.30;;;0.30;;
60885;SDS011;46736;41.654;-8.438;2023-07-31T01:54:30;0.30;;;0.30;;
60885;SDS011;46736;41.654;-8.438;2023-07-31T01:56:30;0.30;;;0.30;;
60885;SDS011;46736;41.654;-8.438;2023-07-31T01:58:32;0.30;;;0.30;;
60885;SDS011;46736;41.654;-8.438;2023-07-31T02:00:32;0.40;;;0.40;;
60885;SDS011;46736;41.654;-8.438;2023-07-31T02:02:34;0.30;;;0.30;;
60885;SDS011;46736;41.654;-8.438;2023-07-31T02:04:34;0.40;;;0.40;;
60885;SDS011;46736;41.654;-8.438;2023-07-31T02:06:35;0.30;;;0.30;;
60885;SDS011;46736;41.654;-8.438;2023-07-31T02:08:35;0.30;;;0.30;;
60885;SDS011;46736;41.654;-8.438;2023-07-31T02:10:36;0.30;;;0.30;;
60885;SDS011;46736;41.654;-8.438;2023-07-31T02:12:37;0.40;;;0.40;;
60885;SDS011;46736;41.654;-8.438;2023-07-31T02:14:38;0.30;;;0.30;;
60885;SDS011;46736;41.654;-8.438;2023-07-31T02:16:38;0.30;;;0.30;;
60885;SDS011;46736;41.654;-8.438;2023-07-31T02:18:40;0.30;;;0.30;;
60885;SDS011;46736;41.654;-8.438;2023-07-31T02:20:41;0.28;;;0.28;;
60885;SDS011;46736;41.654;-8.438;2023-07-31T02:22:42;0.40;;;0.40;;
60885;SDS011;46736;41.654;-8.438;2023-07-31T02:24:42;0.30;;;0.30;;
60885;SDS011;46736;41.654;-8.438;2023-07-31T02:26:43;0.30;;;0.30;;
60885;SDS011;46736;41.654;-8.438;2023-07-31T02:28:43;0.40;;;0.40;;
60885;SDS011;46736;41.654;-8.438;2023-07-31T02:30:45;0.30;;;0.30;;
60885;SDS011;46736;41.654;-8.438;2023-07-31T02:32:47;0.30;;;0.30;;
60885;SDS011;46736;41.654;-8.438;2023-07-31T02:34:47;0.20;;;0.20;;
60885;SDS011;46736;41.654;-8.438;2023-07-31T02:36:49;0.30;;;0.30;;
60885;SDS011;46736;41.654;-8.438;2023-07-31T02:38:49;0.30;;;0.30;;
60885;SDS011;46736;41.654;-8.438;2023-07-31T02:40:50;0.30;;;0.30;;
60885;SDS011;46736;41.654;-8.438;2023-07-31T02:42:53;0.30;;;0.30;;
60885;SDS011;46736;41.654;-8.438;2023-07-31T02:44:54;0.30;;;0.30;;
60885;SDS011;46736;41.654;-8.438;2023-07-31T02:46:56;0.30;;;0.30;;
60885;SDS011;46736;41.654;-8.438;2023-07-31T02:48:56;0.35;;;0.35;;
60885;SDS011;46736;41.654;-8.438;2023-07-31T02:50:57;0.40;;;0.40;;
60885;SDS011;46736;41.654;-8.438;2023-07-31T02:52:57;0.30;;;0.30;;
60885;SDS011;46736;41.654;-8.438;2023-07-31T02:54:58;0.30;;;0.30;;
60885;SDS011;46736;41.654;-8.438;2023-07-31T02:56:59;0.22;;;0.22;;
60885;SDS011;46736;41.654;-8.438;2023-07-31T02:58:59;0.30;;;0.30;;
60885;SDS011;46736;41.654;-8.438;2023-07-31T03:01:00;0.40;;;0.40;;
60885;SDS011;46736;41.654;-8.438;2023-07-31T03:03:00;0.40;;;0.40;;
60885;SDS011;46736;41.654;-8.438;2023-07-31T03:05:02;0.40;;;0.40;;
60885;SDS011;46736;41.654;-8.438;2023-07-31T03:07:02;0.30;;;0.30;;
60885;SDS011;46736;41.654;-8.438;2023-07-31T03:09:03;0.40;;;0.40;;
60885;SDS011;46736;41.654;-8.438;2023-07-31T03:11:03;0.30;;;0.30;;
60885;SDS011;46736;41.654;-8.438;2023-07-31T03:13:04;0.30;;;0.30;;
60885;SDS011;46736;41.654;-8.438;2023-07-31T03:15:04;0.30;;;0.30;;
60885;SDS011;46736;41.654;-8.438;2023-07-31T03:17:05;0.28;;;0.28;;
60885;SDS011;46736;41.654;-8.438;2023-07-31T03:19:06;0.32;;;0.32;;
60885;SDS011;46736;41.654;-8.438;2023-07-31T03:21:06;0.40;;;0.40;;
60885;SDS011;46736;41.654;-8.438;2023-07-31T03:23:07;0.40;;;0.40;;
60885;SDS011;46736;41.654;-8.438;2023-07-31T03:25:07;0.35;;;0.35;;
60885;SDS011;46736;41.654;-8.438;2023-07-31T03:27:10;0.30;;;0.30;;
60885;SDS011;46736;41.654;-8.438;2023-07-31T03:29:10;0.30;;;0.30;;
60885;SDS011;46736;41.654;-8.438;2023-07-31T03:31:11;0.30;;;0.30;;
60885;SDS011;46736;41.654;-8.438;2023-07-31T03:33:12;0.30;;;0.30;;
60885;SDS011;46736;41.654;-8.438;2023-07-31T03:35:12;0.30;;;0.30;;
60885;SDS011;46736;41.654;-8.438;2023-07-31T03:37:13;0.40;;;0.40;;
60885;SDS011;46736;41.654;-8.438;2023-07-31T03:39:13;0.38;;;0.38;;
60885;SDS011;46736;41.654;-8.438;2023-07-31T03:41:14;0.40;;;0.40;;
60885;SDS011;46736;41.654;-8.438;2023-07-31T03:43:15;0.22;;;0.22;;
60885;SDS011;46736;41.654;-8.438;2023-07-31T03:45:16;0.30;;;0.30;;
60885;SDS011;46736;41.654;-8.438;2023-07-31T03:47:17;0.30;;;0.30;;
60885;SDS011;46736;41.654;-8.438;2023-07-31T03:49:18;0.30;;;0.30;;
60885;SDS011;46736;41.654;-8.438;2023-07-31T03:51:22;0.30;;;0.30;;
60885;SDS011;46736;41.654;-8.438;2023-07-31T03:53:23;0.35;;;0.35;;
60885;SDS011;46736;41.654;-8.438;2023-07-31T03:55:23;0.32;;;0.32;;
60885;SDS011;46736;41.654;-8.438;2023-07-31T03:57:24;0.40;;;0.40;;
60885;SDS011;46736;41.654;-8.438;2023-07-31T03:59:25;0.35;;;0.35;;
60885;SDS011;46736;41.654;-8.438;2023-07-31T04:01:25;0.40;;;0.40;;
60885;SDS011;46736;41.654;-8.438;2023-07-31T04:03:26;0.30;;;0.30;;
60885;SDS011;46736;41.654;-8.438;2023-07-31T04:05:26;0.30;;;0.30;;
60885;SDS011;46736;41.654;-8.438;2023-07-31T04:07:27;0.30;;;0.30;;
60885;SDS011;46736;41.654;-8.438;2023-07-31T04:09:27;0.40;;;0.40;;
60885;SDS011;46736;41.654;-8.438;2023-07-31T04:11:28;0.35;;;0.35;;
60885;SDS011;46736;41.654;-8.438;2023-07-31T04:13:29;0.38;;;0.38;;
60885;SDS011;46736;41.654;-8.438;2023-07-31T04:15:30;0.40;;;0.40;;
60885;SDS011;46736;41.654;-8.438;2023-07-31T04:17:30;0.30;;;0.30;;
60885;SDS011;46736;41.654;-8.438;2023-07-31T04:19:31;0.30;;;0.30;;
60885;SDS011;46736;41.654;-8.438;2023-07-31T04:21:31;0.30;;;0.30;;
60885;SDS011;46736;41.654;-8.438;2023-07-31T04:23:32;0.30;;;0.30;;
60885;SDS011;46736;41.654;-8.438;2023-07-31T04:25:32;0.20;;;0.20;;
60885;SDS011;46736;41.654;-8.438;2023-07-31T04:27:35;0.25;;;0.25;;
60885;SDS011;46736;41.654;-8.438;2023-07-31T04:29:35;0.30;;;0.30;;
60885;SDS011;46736;41.654;-8.438;2023-07-31T04:31:36;0.40;;;0.40;;
60885;SDS011;46736;41.654;-8.438;2023-07-31T04:33:36;0.30;;;0.30;;
60885;SDS011;46736;41.654;-8.438;2023-07-31T04:35:36;0.40;;;0.40;;
60885;SDS011;46736;41.654;-8.438;2023-07-31T04:37:37;0.40;;;0.40;;
60885;SDS011;46736;41.654;-8.438;2023-07-31T04:39:39;0.38;;;0.38;;
60885;SDS011;46736;41.654;-8.438;2023-07-31T04:41:39;0.30;;;0.30;;
60885;SDS011;46736;41.654;-8.438;2023-07-31T04:43:40;0.40;;;0.40;;
60885;SDS011;46736;41.654;-8.438;2023-07-31T04:45:42;0.40;;;0.40;;
60885;SDS011;46736;41.654;-8.438;2023-07-31T04:47:43;0.30;;;0.30;;
60885;SDS011;46736;41.654;-8.438;2023-07-31T04:49:43;0.40;;;0.40;;
60885;SDS011;46736;41.654;-8.438;2023-07-31T04:51:44;0.47;;;0.47;;
60885;SDS011;46736;41.654;-8.438;2023-07-31T04:53:44;0.30;;;0.30;;
60885;SDS011;46736;41.654;-8.438;2023-07-31T04:55:45;0.30;;;0.30;;
60885;SDS011;46736;41.654;-8.438;2023-07-31T04:57:45;0.30;;;0.30;;
60885;SDS011;46736;41.654;-8.438;2023-07-31T04:59:46;0.30;;;0.30;;
60885;SDS011;46736;41.654;-8.438;2023-07-31T05:01:46;0.40;;;0.40;;
60885;SDS011;46736;41.654;-8.438;2023-07-31T05:03:47;0.30;;;0.30;;
60885;SDS011;46736;41.654;-8.438;2023-07-31T05:05:47;0.30;;;0.30;;
60885;SDS011;46736;41.654;-8.438;2023-07-31T05:07:48;0.40;;;0.40;;
60885;SDS011;46736;41.654;-8.438;2023-07-31T05:09:49;0.30;;;0.30;;
60885;SDS011;46736;41.654;-8.438;2023-07-31T05:11:49;0.35;;;0.35;;
60885;SDS011;46736;41.654;-8.438;2023-07-31T05:13:50;0.50;;;0.50;;
60885;SDS011;46736;41.654;-8.438;2023-07-31T05:15:50;0.40;;;0.40;;
60885;SDS011;46736;41.654;-8.438;2023-07-31T05:17:51;0.30;;;0.30;;
60885;SDS011;46736;41.654;-8.438;2023-07-31T05:19:51;0.45;;;0.45;;
60885;SDS011;46736;41.654;-8.438;2023-07-31T05:21:52;0.30;;;0.30;;
60885;SDS011;46736;41.654;-8.438;2023-07-31T05:23:53;0.22;;;0.22;;
60885;SDS011;46736;41.654;-8.438;2023-07-31T05:25:53;0.40;;;0.40;;
60885;SDS011;46736;41.654;-8.438;2023-07-31T05:27:54;0.40;;;0.40;;
60885;SDS011;46736;41.654;-8.438;2023-07-31T05:29:54;0.30;;;0.30;;
60885;SDS011;46736;41.654;-8.438;2023-07-31T05:31:55;0.40;;;0.40;;
60885;SDS011;46736;41.654;-8.438;2023-07-31T05:33:55;0.40;;;0.40;;
60885;SDS011;46736;41.654;-8.438;2023-07-31T05:35:56;0.30;;;0.30;;
60885;SDS011;46736;41.654;-8.438;2023-07-31T05:37:56;0.30;;;0.30;;
60885;SDS011;46736;41.654;-8.438;2023-07-31T05:39:57;0.40;;;0.40;;
60885;SDS011;46736;41.654;-8.438;2023-07-31T05:41:57;0.40;;;0.40;;
60885;SDS011;46736;41.654;-8.438;2023-07-31T05:43:58;0.30;;;0.30;;
60885;SDS011;46736;41.654;-8.438;2023-07-31T05:45:58;0.50;;;0.50;;
60885;SDS011;46736;41.654;-8.438;2023-07-31T05:47:59;0.40;;;0.40;;
60885;SDS011;46736;41.654;-8.438;2023-07-31T05:49:59;0.20;;;0.20;;
60885;SDS011;46736;41.654;-8.438;2023-07-31T05:52:00;0.20;;;0.20;;
60885;SDS011;46736;41.654;-8.438;2023-07-31T05:54:01;0.40;;;0.40;;
60885;SDS011;46736;41.654;-8.438;2023-07-31T05:56:02;0.30;;;0.30;;
60885;SDS011;46736;41.654;-8.438;2023-07-31T05:58:02;0.30;;;0.30;;
60885;SDS011;46736;41.654;-8.438;2023-07-31T06:00:03;0.45;;;0.45;;
60885;SDS011;46736;41.654;-8.438;2023-07-31T06:02:05;0.40;;;0.40;;
60885;SDS011;46736;41.654;-8.438;2023-07-31T06:04:06;0.47;;;0.47;;
60885;SDS011;46736;41.654;-8.438;2023-07-31T06:06:07;0.30;;;0.30;;
60885;SDS011;46736;41.654;-8.438;2023-07-31T06:08:07;0.38;;;0.38;;
60885;SDS011;46736;41.654;-8.438;2023-07-31T06:10:08;0.30;;;0.30;;
60885;SDS011;46736;41.654;-8.438;2023-07-31T06:12:10;0.40;;;0.40;;
60885;SDS011;46736;41.654;-8.438;2023-07-31T06:14:10;0.38;;;0.38;;
60885;SDS011;46736;41.654;-8.438;2023-07-31T06:16:10;0.40;;;0.40;;
60885;SDS011;46736;41.654;-8.438;2023-07-31T06:18:12;0.30;;;0.30;;
60885;SDS011;46736;41.654;-8.438;2023-07-31T06:20:13;0.40;;;0.40;;
60885;SDS011;46736;41.654;-8.438;2023-07-31T06:22:13;0.20;;;0.20;;
60885;SDS011;46736;41.654;-8.438;2023-07-31T06:24:13;0.32;;;0.32;;
60885;SDS011;46736;41.654;-8.438;2023-07-31T06:26:19;0.30;;;0.30;;
60885;SDS011;46736;41.654;-8.438;2023-07-31T06:28:19;0.30;;;0.30;;
60885;SDS011;46736;41.654;-8.438;2023-07-31T06:30:20;0.30;;;0.30;;
60885;SDS011;46736;41.654;-8.438;2023-07-31T06:32:20;0.30;;;0.30;;
60885;SDS011;46736;41.654;-8.438;2023-07-31T06:34:21;0.30;;;0.30;;
60885;SDS011;46736;41.654;-8.438;2023-07-31T06:36:22;0.40;;;0.40;;
60885;SDS011;46736;41.654;-8.438;2023-07-31T06:38:24;0.30;;;0.30;;
60885;SDS011;46736;41.654;-8.438;2023-07-31T06:40:24;0.35;;;0.35;;
60885;SDS011;46736;41.654;-8.438;2023-07-31T06:42:26;0.30;;;0.30;;
60885;SDS011;46736;41.654;-8.438;2023-07-31T06:44:27;0.30;;;0.30;;
60885;SDS011;46736;41.654;-8.438;2023-07-31T06:46:27;0.30;;;0.30;;
60885;SDS011;46736;41.654;-8.438;2023-07-31T06:48:28;0.40;;;0.40;;
60885;SDS011;46736;41.654;-8.438;2023-07-31T06:50:28;0.38;;;0.38;;
60885;SDS011;46736;41.654;-8.438;2023-07-31T06:52:29;0.30;;;0.30;;
60885;SDS011;46736;41.654;-8.438;2023-07-31T06:54:29;0.40;;;0.40;;
60885;SDS011;46736;41.654;-8.438;2023-07-31T06:56:30;0.30;;;0.30;;
60885;SDS011;46736;41.654;-8.438;2023-07-31T06:58:30;0.30;;;0.30;;
60885;SDS011;46736;41.654;-8.438;2023-07-31T07:00:31;0.30;;;0.30;;
60885;SDS011;46736;41.654;-8.438;2023-07-31T07:02:32;0.30;;;0.30;;
60885;SDS011;46736;41.654;-8.438;2023-07-31T07:04:33;0.40;;;0.40;;
60885;SDS011;46736;41.654;-8.438;2023-07-31T07:06:33;0.40;;;0.40;;
60885;SDS011;46736;41.654;-8.438;2023-07-31T07:08:34;0.30;;;0.30;;
60885;SDS011;46736;41.654;-8.438;2023-07-31T07:10:34;0.20;;;0.20;;
60885;SDS011;46736;41.654;-8.438;2023-07-31T07:12:35;0.30;;;0.30;;
60885;SDS011;46736;41.654;-8.438;2023-07-31T07:14:35;0.30;;;0.30;;
60885;SDS011;46736;41.654;-8.438;2023-07-31T07:16:36;0.30;;;0.30;;
60885;SDS011;46736;41.654;-8.438;2023-07-31T07:18:36;0.35;;;0.35;;
60885;SDS011;46736;41.654;-8.438;2023-07-31T07:20:37;0.30;;;0.30;;
60885;SDS011;46736;41.654;-8.438;2023-07-31T07:22:37;0.35;;;0.35;;
60885;SDS011;46736;41.654;-8.438;2023-07-31T07:24:38;0.30;;;0.30;;
60885;SDS011;46736;41.654;-8.438;2023-07-31T07:26:38;0.30;;;0.30;;
60885;SDS011;46736;41.654;-8.438;2023-07-31T07:28:39;0.38;;;0.38;;
60885;SDS011;46736;41.654;-8.438;2023-07-31T07:30:42;0.20;;;0.20;;
60885;SDS011;46736;41.654;-8.438;2023-07-31T07:32:43;0.30;;;0.30;;
60885;SDS011;46736;41.654;-8.438;2023-07-31T07:34:43;0.40;;;0.40;;
60885;SDS011;46736;41.654;-8.438;2023-07-31T07:36:44;0.40;;;0.40;;
60885;SDS011;46736;41.654;-8.438;2023-07-31T07:38:50;0.30;;;0.30;;
60885;SDS011;46736;41.654;-8.438;2023-07-31T07:40:50;0.40;;;0.40;;
60885;SDS011;46736;41.654;-8.438;2023-07-31T07:42:53;0.20;;;0.20;;
60885;SDS011;46736;41.654;-8.438;2023-07-31T07:44:56;0.30;;;0.30;;
60885;SDS011;46736;41.654;-8.438;2023-07-31T07:46:57;0.30;;;0.30;;
60885;SDS011;46736;41.654;-8.438;2023-07-31T07:49:06;0.30;;;0.30;;
60885;SDS011;46736;41.654;-8.438;2023-07-31T07:51:06;0.40;;;0.40;;
60885;SDS011;46736;41.654;-8.438;2023-07-31T07:53:07;0.30;;;0.30;;
60885;SDS011;46736;41.654;-8.438;2023-07-31T07:55:08;0.30;;;0.30;;
60885;SDS011;46736;41.654;-8.438;2023-07-31T07:57:09;0.30;;;0.30;;
60885;SDS011;46736;41.654;-8.438;2023-07-31T07:59:09;0.30;;;0.30;;
60885;SDS011;46736;41.654;-8.438;2023-07-31T08:01:10;0.30;;;0.30;;
60885;SDS011;46736;41.654;-8.438;2023-07-31T08:03:10;0.30;;;0.30;;
60885;SDS011;46736;41.654;-8.438;2023-07-31T08:05:11;0.20;;;0.20;;
60885;SDS011;46736;41.654;-8.438;2023-07-31T08:07:11;0.20;;;0.20;;
60885;SDS011;46736;41.654;-8.438;2023-07-31T08:09:13;0.10;;;0.10;;
60885;SDS011;46736;41.654;-8.438;2023-07-31T08:11:13;0.10;;;0.10;;
60885;SDS011;46736;41.654;-8.438;2023-07-31T08:13:14;0.10;;;0.10;;
60885;SDS011;46736;41.654;-8.438;2023-07-31T08:15:14;0.10;;;0.10;;
60885;SDS011;46736;41.654;-8.438;2023-07-31T08:17:14;0.10;;;0.10;;
60885;SDS011;46736;41.654;-8.438;2023-07-31T08:19:15;0.10;;;0.10;;
60885;SDS011;46736;41.654;-8.438;2023-07-31T08:21:15;0.00;;;0.00;;
60885;SDS011;46736;41.654;-8.438;2023-07-31T08:23:16;0.00;;;0.00;;
60885;SDS011;46736;41.654;-8.438;2023-07-31T08:25:16;0.08;;;0.08;;
60885;SDS011;46736;41.654;-8.438;2023-07-31T08:27:17;0.00;;;0.00;;
60885;SDS011;46736;41.654;-8.438;2023-07-31T08:29:18;0.00;;;0.00;;
60885;SDS011;46736;41.654;-8.438;2023-07-31T08:31:18;0.00;;;0.00;;
60885;SDS011;46736;41.654;-8.438;2023-07-31T08:33:19;0.00;;;0.00;;
60885;SDS011;46736;41.654;-8.438;2023-07-31T08:35:19;0.00;;;0.00;;
60885;SDS011;46736;41.654;-8.438;2023-07-31T08:37:20;0.00;;;0.00;;
60885;SDS011;46736;41.654;-8.438;2023-07-31T08:39:21;0.00;;;0.00;;
60885;SDS011;46736;41.654;-8.438;2023-07-31T08:41:21;0.00;;;0.00;;
60885;SDS011;46736;41.654;-8.438;2023-07-31T08:43:22;0.00;;;0.00;;
60885;SDS011;46736;41.654;-8.438;2023-07-31T08:45:22;0.00;;;0.00;;
60885;SDS011;46736;41.654;-8.438;2023-07-31T08:47:25;0.00;;;0.00;;
60885;SDS011;46736;41.654;-8.438;2023-07-31T08:49:26;0.00;;;0.00;;
60885;SDS011;46736;41.654;-8.438;2023-07-31T08:51:27;0.00;;;0.00;;
60885;SDS011;46736;41.654;-8.438;2023-07-31T08:53:28;0.17;;;0.13;;
60885;SDS011;46736;41.654;-8.438;2023-07-31T08:55:28;0.00;;;0.00;;
60885;SDS011;46736;41.654;-8.438;2023-07-31T08:57:29;0.00;;;0.00;;
60885;SDS011;46736;41.654;-8.438;2023-07-31T08:59:31;0.00;;;0.00;;
60885;SDS011;46736;41.654;-8.438;2023-07-31T09:01:33;0.00;;;0.00;;
60885;SDS011;46736;41.654;-8.438;2023-07-31T09:03:35;0.00;;;0.00;;
60885;SDS011;46736;41.654;-8.438;2023-07-31T09:05:36;0.00;;;0.00;;
60885;SDS011;46736;41.654;-8.438;2023-07-31T09:07:40;0.00;;;0.00;;
60885;SDS011;46736;41.654;-8.438;2023-07-31T09:09:40;0.00;;;0.00;;
60885;SDS011;46736;41.654;-8.438;2023-07-31T09:11:41;0.00;;;0.00;;
60885;SDS011;46736;41.654;-8.438;2023-07-31T09:13:42;0.00;;;0.00;;
60885;SDS011;46736;41.654;-8.438;2023-07-31T09:15:44;0.00;;;0.00;;
60885;SDS011;46736;41.654;-8.438;2023-07-31T09:17:45;0.00;;;0.00;;
60885;SDS011;46736;41.654;-8.438;2023-07-31T09:19:45;0.00;;;0.00;;
60885;SDS011;46736;41.654;-8.438;2023-07-31T09:21:47;0.00;;;0.00;;
60885;SDS011;46736;41.654;-8.438;2023-07-31T09:23:48;0.00;;;0.00;;
60885;SDS011;46736;41.654;-8.438;2023-07-31T09:25:48;0.00;;;0.00;;
60885;SDS011;46736;41.654;-8.438;2023-07-31T09:27:49;0.00;;;0.00;;
60885;SDS011;46736;41.654;-8.438;2023-07-31T09:29:58;0.00;;;0.00;;
60885;SDS011;46736;41.654;-8.438;2023-07-31T09:31:59;0.00;;;0.00;;
60885;SDS011;46736;41.654;-8.438;2023-07-31T09:33:59;0.00;;;0.00;;
60885;SDS011;46736;41.654;-8.438;2023-07-31T09:36:00;0.00;;;0.00;;
60885;SDS011;46736;41.654;-8.438;2023-07-31T09:38:05;0.00;;;0.00;;
60885;SDS011;46736;41.654;-8.438;2023-07-31T09:40:06;0.00;;;0.00;;
60885;SDS011;46736;41.654;-8.438;2023-07-31T09:42:07;0.00;;;0.00;;
60885;SDS011;46736;41.654;-8.438;2023-07-31T09:44:07;0.00;;;0.00;;
60885;SDS011;46736;41.654;-8.438;2023-07-31T09:46:13;0.00;;;0.00;;
60885;SDS011;46736;41.654;-8.438;2023-07-31T09:48:15;0.00;;;0.00;;
60885;SDS011;46736;41.654;-8.438;2023-07-31T09:50:16;0.00;;;0.00;;
60885;SDS011;46736;41.654;-8.438;2023-07-31T09:52:18;0.00;;;0.00;;
60885;SDS011;46736;41.654;-8.438;2023-07-31T09:54:18;0.00;;;0.00;;
60885;SDS011;46736;41.654;-8.438;2023-07-31T09:56:20;0.00;;;0.00;;
60885;SDS011;46736;41.654;-8.438;2023-07-31T09:58:21;0.00;;;0.00;;
60885;SDS011;46736;41.654;-8.438;2023-07-31T10:00:22;0.00;;;0.00;;
60885;SDS011;46736;41.654;-8.438;2023-07-31T10:02:25;0.00;;;0.00;;
60885;SDS011;46736;41.654;-8.438;2023-07-31T10:04:27;0.00;;;0.00;;
60885;SDS011;46736;41.654;-8.438;2023-07-31T10:06:28;0.00;;;0.00;;
60885;SDS011;46736;41.654;-8.438;2023-07-31T10:08:30;0.00;;;0.00;;
60885;SDS011;46736;41.654;-8.438;2023-07-31T10:10:32;0.00;;;0.00;;
60885;SDS011;46736;41.654;-8.438;2023-07-31T10:12:34;0.00;;;0.00;;
60885;SDS011;46736;41.654;-8.438;2023-07-31T10:14:36;0.00;;;0.00;;
60885;SDS011;46736;41.654;-8.438;2023-07-31T10:16:38;0.00;;;0.00;;
60885;SDS011;46736;41.654;-8.438;2023-07-31T10:18:38;0.00;;;0.00;;
60885;SDS011;46736;41.654;-8.438;2023-07-31T10:20:40;0.00;;;0.00;;
60885;SDS011;46736;41.654;-8.438;2023-07-31T10:22:41;0.00;;;0.00;;
60885;SDS011;46736;41.654;-8.438;2023-07-31T10:24:42;0.00;;;0.00;;
60885;SDS011;46736;41.654;-8.438;2023-07-31T10:26:43;0.00;;;0.00;;
60885;SDS011;46736;41.654;-8.438;2023-07-31T10:28:46;0.00;;;0.00;;
60885;SDS011;46736;41.654;-8.438;2023-07-31T10:30:47;0.00;;;0.00;;
60885;SDS011;46736;41.654;-8.438;2023-07-31T10:32:48;0.00;;;0.00;;
60885;SDS011;46736;41.654;-8.438;2023-07-31T10:34:50;0.00;;;0.00;;
60885;SDS011;46736;41.654;-8.438;2023-07-31T10:36:53;0.00;;;0.00;;
60885;SDS011;46736;41.654;-8.438;2023-07-31T10:41:28;0.00;;;0.00;;
60885;SDS011;46736;41.654;-8.438;2023-07-31T10:43:29;0.00;;;0.00;;
60885;SDS011;46736;41.654;-8.438;2023-07-31T10:45:37;0.00;;;0.00;;
60885;SDS011;46736;41.654;-8.438;2023-07-31T10:47:38;0.00;;;0.00;;
60885;SDS011;46736;41.654;-8.438;2023-07-31T10:49:39;0.00;;;0.00;;
60885;SDS011;46736;41.654;-8.438;2023-07-31T10:51:39;0.00;;;0.00;;
60885;SDS011;46736;41.654;-8.438;2023-07-31T10:53:41;0.00;;;0.00;;
60885;SDS011;46736;41.654;-8.438;2023-07-31T10:55:42;0.00;;;0.00;;
60885;SDS011;46736;41.654;-8.438;2023-07-31T10:57:47;0.00;;;0.00;;
60885;SDS011;46736;41.654;-8.438;2023-07-31T10:59:50;0.00;;;0.00;;
60885;SDS011;46736;41.654;-8.438;2023-07-31T11:01:54;0.00;;;0.00;;
60885;SDS011;46736;41.654;-8.438;2023-07-31T11:03:57;0.00;;;0.00;;
60885;SDS011;46736;41.654;-8.438;2023-07-31T11:07:58;0.00;;;0.00;;
60885;SDS011;46736;41.654;-8.438;2023-07-31T11:09:59;0.00;;;0.00;;
60885;SDS011;46736;41.654;-8.438;2023-07-31T11:12:00;0.00;;;0.00;;
60885;SDS011;46736;41.654;-8.438;2023-07-31T11:14:00;0.00;;;0.00;;
60885;SDS011;46736;41.654;-8.438;2023-07-31T11:16:04;0.00;;;0.00;;
60885;SDS011;46736;41.654;-8.438;2023-07-31T11:18:04;0.00;;;0.00;;
60885;SDS011;46736;41.654;-8.438;2023-07-31T11:20:09;0.00;;;0.00;;
60885;SDS011;46736;41.654;-8.438;2023-07-31T11:22:10;0.00;;;0.00;;
60885;SDS011;46736;41.654;-8.438;2023-07-31T11:24:12;0.00;;;0.00;;
60885;SDS011;46736;41.654;-8.438;2023-07-31T11:26:12;0.00;;;0.00;;
60885;SDS011;46736;41.654;-8.438;2023-07-31T11:28:15;0.00;;;0.00;;
60885;SDS011;46736;41.654;-8.438;2023-07-31T11:30:15;0.00;;;0.00;;
60885;SDS011;46736;41.654;-8.438;2023-07-31T11:32:18;0.00;;;0.00;;
60885;SDS011;46736;41.654;-8.438;2023-07-31T11:34:19;0.00;;;0.00;;
60885;SDS011;46736;41.654;-8.438;2023-07-31T11:36:20;0.00;;;0.00;;
60885;SDS011;46736;41.654;-8.438;2023-07-31T11:38:25;0.00;;;0.00;;
60885;SDS011;46736;41.654;-8.438;2023-07-31T11:40:26;0.00;;;0.00;;
60885;SDS011;46736;41.654;-8.438;2023-07-31T11:42:30;0.00;;;0.00;;
60885;SDS011;46736;41.654;-8.438;2023-07-31T11:44:37;0.00;;;0.00;;
60885;SDS011;46736;41.654;-8.438;2023-07-31T11:46:38;0.00;;;0.00;;
60885;SDS011;46736;41.654;-8.438;2023-07-31T11:48:39;0.00;;;0.00;;
60885;SDS011;46736;41.654;-8.438;2023-07-31T11:50:40;0.00;;;0.00;;
60885;SDS011;46736;41.654;-8.438;2023-07-31T11:52:41;0.00;;;0.00;;
60885;SDS011;46736;41.654;-8.438;2023-07-31T11:54:42;0.00;;;0.00;;
60885;SDS011;46736;41.654;-8.438;2023-07-31T11:56:43;0.00;;;0.00;;
60885;SDS011;46736;41.654;-8.438;2023-07-31T11:58:45;0.00;;;0.00;;
60885;SDS011;46736;41.654;-8.438;2023-07-31T12:00:46;0.00;;;0.00;;
60885;SDS011;46736;41.654;-8.438;2023-07-31T12:02:47;0.00;;;0.00;;
60885;SDS011;46736;41.654;-8.438;2023-07-31T12:04:47;0.00;;;0.00;;
60885;SDS011;46736;41.654;-8.438;2023-07-31T12:06:48;0.10;;;0.10;;
60885;SDS011;46736;41.654;-8.438;2023-07-31T12:08:50;0.03;;;0.03;;
60885;SDS011;46736;41.654;-8.438;2023-07-31T12:10:51;0.10;;;0.10;;
60885;SDS011;46736;41.654;-8.438;2023-07-31T12:12:55;0.10;;;0.10;;